createdAt,value
2018-11-11T00:01:12.159Z,27.50
2018-11-11T00:03:40.357Z,27.58
2018-11-11T00:06:08.646Z,29.98
2018-11-11T00:08:36.845Z,29.95
2018-11-11T00:11:05.324Z,30.48
2018-11-11T00:13:33.547Z,28.95
2018-11-11T00:16:01.776Z,29.02
2018-11-11T00:18:30.049Z,29.00
2018-11-11T00:20:58.274Z,28.92
2018-11-11T00:23:26.543Z,28.00
2018-11-11T00:25:54.837Z,28.12
2018-11-11T00:28:23.075Z,27.82
2018-11-11T00:30:51.285Z,26.57
2018-11-11T00:33:19.574Z,29.00
2018-11-11T00:35:47.822Z,29.00
2018-11-11T00:38:16.071Z,32.45
2018-11-11T00:40:44.326Z,29.25
2018-11-11T00:43:12.557Z,30.90
2018-11-11T00:45:40.813Z,28.07
2018-11-11T00:48:09.072Z,27.73
2018-11-11T00:50:37.339Z,26.27
2018-11-11T00:53:05.714Z,26.42
2018-11-11T00:55:37.803Z,27.60
2018-11-11T00:58:06.157Z,26.65
2018-11-11T01:00:34.417Z,27.27
2018-11-11T01:03:02.630Z,26.42
2018-11-11T01:05:30.881Z,27.93
2018-11-11T01:07:59.123Z,27.17
2018-11-11T01:10:27.351Z,29.72
2018-11-11T01:12:55.598Z,31.07
2018-11-11T01:15:23.825Z,30.37
2018-11-11T01:17:52.042Z,27.95
2018-11-11T01:20:20.281Z,26.95
2018-11-11T01:22:48.538Z,28.40
2018-11-11T01:25:17.558Z,29.87
2018-11-11T01:27:45.870Z,29.02
2018-11-11T01:30:14.132Z,27.45
2018-11-11T01:32:42.347Z,28.80
2018-11-11T01:35:12.469Z,32.55
2018-11-11T01:37:41.353Z,29.87
2018-11-11T01:40:09.621Z,29.30
2018-11-11T01:42:37.911Z,28.42
2018-11-11T01:45:09.910Z,28.10
2018-11-11T01:47:38.206Z,27.73
2018-11-11T01:50:07.762Z,26.52
2018-11-11T01:52:36.181Z,27.95
2018-11-11T01:55:04.498Z,28.67
2018-11-11T01:57:32.739Z,31.67
2018-11-11T02:00:00.957Z,27.37
2018-11-11T02:02:29.212Z,27.22
2018-11-11T02:04:57.445Z,28.30
2018-11-11T02:07:25.633Z,28.95
2018-11-11T02:09:53.956Z,29.50
2018-11-11T02:12:22.146Z,27.03
2018-11-11T02:14:50.358Z,27.40
2018-11-11T02:17:18.658Z,27.65
2018-11-11T02:19:47.018Z,28.70
2018-11-11T02:22:15.247Z,28.32
2018-11-11T02:24:43.496Z,28.17
2018-11-11T02:27:11.737Z,25.80
2018-11-11T02:29:39.950Z,27.50
2018-11-11T02:32:08.188Z,28.30
2018-11-11T02:34:36.493Z,26.73
2018-11-11T02:37:04.742Z,29.85
2018-11-11T02:39:32.988Z,31.62
2018-11-11T02:42:01.246Z,28.23
2018-11-11T02:44:29.437Z,27.77
2018-11-11T02:46:57.678Z,26.33
2018-11-11T02:49:25.904Z,23.80
2018-11-11T02:51:54.125Z,25.05
2018-11-11T02:54:22.374Z,25.50
2018-11-11T02:56:50.612Z,24.25
2018-11-11T02:59:18.869Z,23.12
2018-11-11T03:01:47.131Z,20.62
2018-11-11T03:04:15.384Z,21.75
2018-11-11T03:06:43.575Z,21.60
2018-11-11T03:09:12.750Z,20.82
2018-11-11T03:11:41.124Z,20.70
2018-11-11T03:14:09.559Z,20.15
2018-11-11T03:16:38.483Z,20.00
2018-11-11T03:19:07.062Z,19.25
2018-11-11T03:21:35.281Z,17.90
2018-11-11T03:24:03.561Z,17.87
2018-11-11T03:26:31.825Z,18.85
2018-11-11T03:29:00.051Z,18.07
2018-11-11T03:31:28.278Z,16.90
2018-11-11T03:33:56.554Z,15.20
2018-11-11T03:36:24.780Z,15.55
2018-11-11T03:38:53.014Z,15.43
2018-11-11T03:41:21.261Z,15.57
2018-11-11T03:43:49.473Z,16.25
2018-11-11T03:46:17.718Z,14.58
2018-11-11T03:48:45.974Z,14.53
2018-11-11T03:51:14.209Z,14.35
2018-11-11T03:53:42.462Z,13.60
2018-11-11T03:56:10.698Z,13.22
2018-11-11T03:58:38.966Z,14.87
2018-11-11T04:01:07.325Z,14.63
2018-11-11T04:03:35.582Z,15.05
2018-11-11T04:06:03.817Z,12.95
2018-11-11T04:08:32.050Z,13.40
2018-11-11T04:11:00.306Z,13.50
2018-11-11T04:13:28.522Z,14.70
2018-11-11T04:15:56.810Z,14.70
2018-11-11T04:18:25.066Z,15.45
2018-11-11T04:20:53.274Z,15.20
2018-11-11T04:23:21.542Z,15.43
2018-11-11T04:25:49.906Z,16.10
2018-11-11T04:28:18.117Z,16.20
2018-11-11T04:30:46.357Z,13.73
2018-11-11T04:33:14.599Z,15.50
2018-11-11T04:35:42.887Z,16.35
2018-11-11T04:38:11.194Z,18.50
2018-11-11T04:40:39.454Z,19.42
2018-11-11T04:43:07.689Z,17.77
2018-11-11T04:45:35.946Z,16.48
2018-11-11T04:48:04.226Z,17.10
2018-11-11T04:50:32.408Z,17.17
2018-11-11T04:53:00.675Z,17.57
2018-11-11T04:55:28.906Z,16.85
2018-11-11T04:57:57.195Z,16.20
2018-11-11T05:00:25.455Z,17.50
2018-11-11T05:02:53.692Z,15.45
2018-11-11T05:05:21.912Z,16.70
2018-11-11T05:07:50.162Z,16.30
2018-11-11T05:10:18.447Z,15.45
2018-11-11T05:12:46.640Z,14.30
2018-11-11T05:15:14.938Z,15.15
2018-11-11T05:17:43.419Z,14.40
2018-11-11T05:20:12.506Z,14.20
2018-11-11T05:22:40.928Z,13.98
2018-11-11T05:25:10.671Z,13.75
2018-11-11T05:27:38.972Z,14.33
2018-11-11T05:30:08.687Z,12.45
2018-11-11T05:32:36.938Z,13.32
2018-11-11T05:35:05.610Z,13.30
2018-11-11T05:37:33.879Z,12.68
2018-11-11T05:40:02.193Z,11.85
2018-11-11T05:42:30.403Z,12.25
2018-11-11T05:44:58.672Z,12.60
2018-11-11T05:47:26.933Z,11.50
2018-11-11T05:49:55.183Z,12.10
2018-11-11T05:52:23.433Z,11.88
2018-11-11T05:54:51.725Z,11.25
2018-11-11T05:57:19.947Z,11.70
2018-11-11T05:59:48.189Z,11.80
2018-11-11T06:02:16.427Z,11.40
2018-11-11T06:04:44.665Z,11.20
2018-11-11T06:07:12.907Z,11.25
2018-11-11T06:09:41.162Z,11.80
2018-11-11T06:12:09.441Z,12.15
2018-11-11T06:14:37.682Z,12.00
2018-11-11T06:17:05.978Z,11.68
2018-11-11T06:19:34.201Z,11.30
2018-11-11T06:22:02.450Z,12.43
2018-11-11T06:24:30.772Z,11.53
2018-11-11T06:26:59.094Z,13.10
2018-11-11T06:29:27.318Z,12.98
2018-11-11T06:31:55.578Z,14.00
2018-11-11T06:34:23.788Z,13.22
2018-11-11T06:36:52.043Z,12.33
2018-11-11T06:39:20.286Z,12.97
2018-11-11T06:41:48.573Z,12.88
2018-11-11T06:44:16.870Z,11.10
2018-11-11T06:46:45.137Z,11.30
2018-11-11T06:49:13.347Z,10.80
2018-11-11T06:51:41.595Z,12.50
2018-11-11T06:54:09.842Z,11.70
2018-11-11T06:56:38.053Z,11.75
2018-11-11T06:59:06.434Z,11.90
2018-11-11T07:01:34.665Z,12.28
2018-11-11T07:04:03.462Z,11.93
2018-11-11T07:06:32.085Z,12.90
2018-11-11T07:09:00.379Z,12.05
2018-11-11T07:11:28.646Z,11.90
2018-11-11T07:13:57.025Z,12.40
2018-11-11T07:16:25.273Z,12.00
2018-11-11T07:18:53.528Z,11.40
2018-11-11T07:21:21.845Z,11.60
2018-11-11T07:23:50.196Z,12.05
2018-11-11T07:26:18.401Z,11.70
2018-11-11T07:28:46.649Z,10.50
2018-11-11T07:31:14.914Z,11.20
2018-11-11T07:33:43.161Z,11.30
2018-11-11T07:36:11.673Z,12.98
2018-11-11T07:38:40.156Z,11.60
2018-11-11T07:41:08.862Z,11.35
2018-11-11T07:43:37.707Z,11.10
2018-11-11T07:46:06.551Z,12.25
2018-11-11T07:48:34.863Z,11.00
2018-11-11T07:51:03.222Z,11.10
2018-11-11T07:53:31.523Z,11.53
2018-11-11T07:55:59.727Z,10.82
2018-11-11T07:58:28.437Z,9.90
2018-11-11T08:00:56.698Z,9.60
2018-11-11T08:03:25.136Z,9.13
2018-11-11T08:05:53.606Z,9.50
2018-11-11T08:08:21.954Z,8.80
2018-11-11T08:11:01.254Z,9.18
2018-11-11T08:13:29.810Z,9.18
2018-11-11T08:15:58.192Z,8.90
2018-11-11T08:18:26.588Z,7.40
2018-11-11T08:20:55.284Z,9.85
2018-11-11T08:23:23.494Z,9.60
2018-11-11T08:25:52.297Z,8.55
2018-11-11T08:28:20.745Z,9.10
2018-11-11T08:30:48.962Z,10.88
2018-11-11T08:33:18.091Z,9.90
2018-11-11T08:35:46.402Z,10.32
2018-11-11T08:38:14.630Z,10.60
2018-11-11T08:40:42.898Z,10.40
2018-11-11T08:43:11.178Z,9.83
2018-11-11T08:45:39.427Z,9.60
2018-11-11T08:48:07.773Z,10.20
2018-11-11T08:50:37.164Z,9.50
2018-11-11T08:53:05.741Z,9.45
2018-11-11T08:55:34.043Z,8.90
2018-11-11T08:58:04.901Z,8.80
2018-11-11T09:00:33.216Z,9.40
2018-11-11T09:03:01.487Z,9.88
2018-11-11T09:05:29.730Z,10.80
2018-11-11T09:07:58.118Z,9.43
2018-11-11T09:10:26.747Z,9.60
2018-11-11T09:12:54.974Z,11.53
2018-11-11T09:15:24.095Z,10.50
2018-11-11T09:17:52.391Z,9.53
2018-11-11T09:20:21.831Z,11.00
2018-11-11T09:22:50.171Z,10.55
2018-11-11T09:25:18.614Z,11.73
2018-11-11T09:27:46.853Z,9.50
2018-11-11T09:30:16.737Z,9.97
2018-11-11T09:32:45.263Z,9.40
2018-11-11T09:35:13.581Z,9.13
2018-11-11T09:37:42.153Z,8.98
2018-11-11T09:40:11.579Z,9.48
2018-11-11T09:42:40.288Z,8.90
2018-11-11T09:45:11.367Z,9.25
2018-11-11T09:47:39.860Z,9.73
2018-11-11T09:50:10.375Z,10.30
2018-11-11T09:52:39.876Z,10.55
2018-11-11T09:55:09.063Z,10.60
2018-11-11T09:57:38.088Z,9.78
2018-11-11T10:00:16.054Z,10.30
2018-11-11T10:02:50.669Z,9.60
2018-11-11T10:06:22.822Z,9.20
2018-11-11T10:09:00.115Z,9.90
2018-11-11T10:11:44.950Z,9.50
2018-11-11T10:14:25.350Z,9.50
2018-11-11T10:17:01.117Z,9.58
2018-11-11T10:19:41.277Z,9.63
2018-11-11T10:22:44.540Z,9.95
2018-11-11T10:25:21.233Z,9.80
2018-11-11T10:27:54.094Z,9.70
2018-11-11T10:30:29.549Z,9.28
2018-11-11T10:33:12.091Z,9.05
2018-11-11T10:35:47.260Z,9.95
2018-11-11T10:38:23.362Z,8.45
2018-11-11T10:41:54.663Z,9.70
2018-11-11T10:44:28.404Z,9.98
2018-11-11T10:47:02.033Z,10.50
2018-11-11T10:49:42.365Z,10.23
2018-11-11T10:52:10.786Z,10.37
2018-11-11T10:54:39.030Z,9.70
2018-11-11T10:57:07.342Z,9.70
2018-11-11T10:59:35.600Z,9.57
2018-11-11T11:02:09.267Z,10.47
2018-11-11T11:04:42.907Z,11.43
2018-11-11T11:07:11.198Z,11.50
2018-11-11T11:09:39.490Z,11.33
2018-11-11T11:12:07.769Z,11.30
2018-11-11T11:14:36.014Z,12.63
2018-11-11T11:17:04.354Z,11.18
2018-11-11T11:19:32.569Z,10.68
2018-11-11T11:22:01.013Z,11.05
2018-11-11T11:24:29.249Z,10.20
2018-11-11T11:26:57.467Z,10.88
2018-11-11T11:29:25.725Z,9.97
2018-11-11T11:31:54.073Z,12.05
2018-11-11T11:34:22.398Z,10.45
2018-11-11T11:36:50.688Z,10.70
2018-11-11T11:39:18.982Z,10.88
2018-11-11T11:41:47.186Z,10.63
2018-11-11T11:44:15.505Z,9.98
2018-11-11T11:46:43.827Z,9.90
2018-11-11T11:49:12.142Z,9.93
2018-11-11T11:51:40.490Z,9.85
2018-11-11T11:54:08.761Z,10.63
2018-11-11T11:56:36.954Z,10.68
2018-11-11T11:59:05.372Z,9.88
2018-11-11T12:01:33.624Z,9.60
2018-11-11T12:04:01.847Z,9.33
2018-11-11T12:06:31.053Z,9.45
2018-11-11T12:08:59.343Z,10.05
2018-11-11T12:11:27.536Z,10.30
2018-11-11T12:13:55.775Z,11.30
2018-11-11T12:16:24.097Z,10.10
2018-11-11T12:18:52.334Z,10.40
2018-11-11T12:21:20.567Z,10.93
2018-11-11T12:23:48.890Z,10.20
2018-11-11T12:26:19.627Z,11.67
2018-11-11T12:28:47.978Z,10.13
2018-11-11T12:31:16.865Z,9.90
2018-11-11T12:33:45.494Z,10.10
2018-11-11T12:36:13.959Z,11.30
2018-11-11T12:38:42.412Z,11.87
2018-11-11T12:41:10.821Z,10.87
2018-11-11T12:43:39.152Z,12.00
2018-11-11T12:46:07.462Z,11.87
2018-11-11T12:48:36.163Z,11.50
2018-11-11T12:51:04.929Z,11.30
2018-11-11T12:53:33.684Z,12.33
2018-11-11T12:56:02.253Z,11.90
2018-11-11T12:58:30.582Z,11.83
2018-11-11T13:00:58.867Z,12.17
2018-11-11T13:03:27.122Z,11.27
2018-11-11T13:05:58.590Z,10.63
2018-11-11T13:08:27.139Z,11.20
2018-11-11T13:10:55.388Z,10.30
2018-11-11T13:13:23.727Z,9.97
2018-11-11T13:15:51.966Z,10.20
2018-11-11T13:18:20.226Z,9.40
2018-11-11T13:20:48.427Z,10.47
2018-11-11T13:23:16.710Z,9.10
2018-11-11T13:25:45.536Z,9.43
2018-11-11T13:28:13.733Z,9.10
2018-11-11T13:30:41.995Z,10.00
2018-11-11T13:33:10.249Z,9.77
2018-11-11T13:35:38.458Z,9.80
2018-11-11T13:38:06.856Z,9.13
2018-11-11T13:40:35.015Z,9.07
2018-11-11T13:43:03.228Z,9.13
2018-11-11T13:45:31.455Z,9.17
2018-11-11T13:47:59.718Z,8.93
2018-11-11T13:50:27.894Z,8.43
2018-11-11T13:52:56.179Z,7.20
2018-11-11T13:55:24.441Z,6.30
2018-11-11T13:57:52.637Z,6.40
2018-11-11T14:00:22.244Z,6.70
2018-11-11T14:02:50.491Z,6.53
2018-11-11T14:05:18.728Z,5.87
2018-11-11T14:07:46.990Z,6.43
2018-11-11T14:10:15.702Z,5.83
2018-11-11T14:12:43.929Z,5.53
2018-11-11T14:15:16.389Z,5.53
2018-11-11T14:17:45.100Z,5.73
2018-11-11T14:20:14.456Z,5.20
2018-11-11T14:22:43.753Z,4.90
2018-11-11T14:25:18.323Z,5.37
2018-11-11T14:27:46.536Z,5.53
2018-11-11T14:30:19.742Z,5.03
2018-11-11T14:32:48.886Z,5.20
2018-11-11T14:35:17.165Z,5.37
2018-11-11T14:37:45.601Z,5.30
2018-11-11T14:40:16.246Z,5.20
2018-11-11T14:42:44.651Z,4.83
2018-11-11T14:45:13.862Z,5.67
2018-11-11T14:47:46.079Z,5.37
2018-11-11T14:50:15.378Z,5.50
2018-11-11T14:52:44.267Z,5.60
2018-11-11T14:55:14.882Z,5.77
2018-11-11T14:57:43.216Z,5.70
2018-11-11T15:00:14.202Z,6.20
2018-11-11T15:02:42.834Z,6.30
2018-11-11T15:05:13.067Z,5.77
2018-11-11T15:07:42.079Z,7.90
2018-11-11T15:10:11.690Z,7.50
2018-11-11T15:12:39.926Z,6.73
2018-11-11T15:15:15.442Z,8.13
2018-11-11T15:17:44.341Z,8.13
2018-11-11T15:20:13.755Z,6.47
2018-11-11T15:22:42.582Z,6.90
2018-11-11T15:25:13.370Z,6.30
2018-11-11T15:27:42.516Z,8.00
2018-11-11T15:30:13.407Z,8.93
2018-11-11T15:32:42.166Z,7.93
2018-11-11T15:35:10.411Z,7.83
2018-11-11T15:37:38.913Z,9.27
2018-11-11T15:40:10.095Z,8.73
2018-11-11T15:42:38.597Z,9.90
2018-11-11T15:45:09.365Z,10.30
2018-11-11T15:47:37.743Z,10.27
2018-11-11T15:50:08.863Z,11.00
2018-11-11T15:52:37.213Z,10.07
2018-11-11T15:55:06.743Z,9.23
2018-11-11T15:57:34.975Z,9.27
2018-11-11T16:00:03.830Z,9.97
2018-11-11T16:02:32.183Z,9.40
2018-11-11T16:05:00.447Z,10.93
2018-11-11T16:07:28.721Z,10.83
2018-11-11T16:09:56.962Z,10.80
2018-11-11T16:12:25.262Z,11.17
2018-11-11T16:14:53.523Z,11.50
2018-11-11T16:17:21.794Z,12.70
2018-11-11T16:19:50.039Z,12.53
2018-11-11T16:22:18.476Z,12.83
2018-11-11T16:24:46.770Z,13.30
2018-11-11T16:27:15.427Z,13.20
2018-11-11T16:29:44.210Z,13.60
2018-11-11T16:32:12.717Z,13.87
2018-11-11T16:34:41.413Z,14.70
2018-11-11T16:37:09.767Z,12.77
2018-11-11T16:39:38.204Z,14.53
2018-11-11T16:42:06.385Z,12.23
2018-11-11T16:44:34.609Z,15.40
2018-11-11T16:47:03.307Z,14.13
2018-11-11T16:49:31.980Z,15.17
2018-11-11T16:52:00.226Z,14.60
2018-11-11T16:54:28.456Z,13.70
2018-11-11T16:56:56.669Z,13.97
2018-11-11T16:59:24.915Z,14.30
2018-11-11T17:01:53.148Z,12.57
2018-11-11T17:04:21.873Z,14.77
2018-11-11T17:06:50.143Z,13.50
2018-11-11T17:09:18.713Z,13.43
2018-11-11T17:11:46.908Z,12.93
2018-11-11T17:14:15.214Z,14.33
2018-11-11T17:16:43.430Z,12.60
2018-11-11T17:19:11.630Z,11.83
2018-11-11T17:21:39.953Z,12.40
2018-11-11T17:24:08.465Z,13.78
2018-11-11T17:26:37.093Z,13.50
2018-11-11T17:29:05.991Z,12.93
2018-11-11T17:31:34.274Z,13.10
2018-11-11T17:34:02.551Z,13.60
2018-11-11T17:36:30.772Z,14.78
2018-11-11T17:38:59.024Z,14.53
2018-11-11T17:41:27.217Z,12.78
2018-11-11T17:43:55.458Z,13.68
2018-11-11T17:46:23.689Z,14.03
2018-11-11T17:48:51.873Z,15.28
2018-11-11T17:51:20.142Z,14.83
2018-11-11T17:53:48.369Z,14.30
2018-11-11T17:56:16.562Z,16.65
2018-11-11T17:58:44.809Z,14.28
2018-11-11T18:01:13.086Z,15.93
2018-11-11T18:03:41.296Z,15.72
2018-11-11T18:06:09.598Z,16.23
2018-11-11T18:08:37.937Z,15.35
2018-11-11T18:11:06.191Z,17.90
2018-11-11T18:13:34.463Z,18.15
2018-11-11T18:16:03.725Z,16.42
2018-11-11T18:18:31.994Z,16.55
2018-11-11T18:21:00.244Z,16.95
2018-11-11T18:23:28.529Z,16.93
2018-11-11T18:25:56.810Z,17.45
2018-11-11T18:28:25.047Z,18.00
2018-11-11T18:30:53.283Z,17.92
2018-11-11T18:33:21.484Z,18.25
2018-11-11T18:35:49.731Z,19.45
2018-11-11T18:38:17.970Z,19.15
2018-11-11T18:40:46.171Z,19.45
2018-11-11T18:43:14.421Z,18.57
2018-11-11T18:45:42.675Z,21.75
2018-11-11T18:48:10.894Z,19.12
2018-11-11T18:50:39.142Z,20.27
2018-11-11T18:53:07.397Z,20.65
2018-11-11T18:55:35.603Z,20.77
2018-11-11T18:58:04.290Z,18.60
2018-11-11T19:00:33.513Z,22.05
2018-11-11T19:03:01.762Z,21.70
2018-11-11T19:05:30.158Z,22.22
2018-11-11T19:08:00.215Z,21.30
2018-11-11T19:10:30.431Z,19.85
2018-11-11T19:13:04.174Z,21.15
2018-11-11T19:15:32.509Z,20.32
2018-11-11T19:18:00.870Z,20.17
2018-11-11T19:20:29.331Z,22.73
2018-11-11T19:22:58.922Z,19.90
2018-11-11T19:25:29.183Z,19.37
2018-11-11T19:27:58.406Z,22.93
2018-11-11T19:30:29.748Z,21.48
2018-11-11T19:32:57.967Z,21.02
2018-11-11T19:35:27.534Z,22.30
2018-11-11T19:37:57.739Z,21.77
2018-11-11T19:40:27.021Z,20.57
2018-11-11T19:42:56.456Z,20.40
2018-11-11T19:45:25.807Z,22.75
2018-11-11T19:47:54.014Z,21.85
2018-11-11T19:50:23.445Z,21.50
2018-11-11T19:52:52.658Z,21.60
2018-11-11T19:55:22.115Z,22.27
2018-11-11T19:57:50.373Z,23.00
2018-11-11T20:00:21.014Z,23.27
2018-11-11T20:02:50.018Z,23.12
2018-11-11T20:05:18.850Z,21.50
2018-11-11T20:07:48.023Z,23.27
2018-11-11T20:10:17.439Z,22.75
2018-11-11T20:12:45.678Z,23.02
2018-11-11T20:15:15.838Z,22.65
2018-11-11T20:17:45.321Z,25.90
2018-11-11T20:20:16.035Z,28.17
2018-11-11T20:22:45.050Z,22.02
2018-11-11T20:25:15.172Z,19.17
2018-11-11T20:27:44.469Z,21.12
2018-11-11T20:30:16.847Z,21.10
2018-11-11T20:32:45.096Z,18.73
2018-11-11T20:35:15.557Z,18.90
2018-11-11T20:37:43.838Z,20.25
2018-11-11T20:40:15.386Z,21.40
2018-11-11T20:42:44.495Z,22.62
2018-11-11T20:45:14.313Z,21.75
2018-11-11T20:47:43.478Z,17.75
2018-11-11T20:50:14.786Z,19.60
2018-11-11T20:52:44.253Z,19.35
2018-11-11T20:55:13.553Z,18.52
2018-11-11T20:57:42.975Z,18.07
2018-11-11T21:00:13.671Z,18.55
2018-11-11T21:02:42.116Z,19.60
2018-11-11T21:05:12.294Z,20.17
2018-11-11T21:07:41.995Z,17.85
2018-11-11T21:10:14.193Z,19.30
2018-11-11T21:12:42.506Z,17.92
2018-11-11T21:15:12.968Z,17.80
2018-11-11T21:17:41.553Z,17.73
2018-11-11T21:20:11.502Z,17.95
2018-11-11T21:22:40.214Z,19.25
2018-11-11T21:25:08.860Z,15.88
2018-11-11T21:27:38.105Z,16.97
2018-11-11T21:30:10.151Z,17.42
2018-11-11T21:32:38.476Z,16.77
2018-11-11T21:35:07.127Z,17.05
2018-11-11T21:37:35.406Z,15.93
2018-11-11T21:40:04.131Z,17.10
2018-11-11T21:42:32.374Z,16.87
2018-11-11T21:45:00.635Z,16.40
2018-11-11T21:47:29.022Z,18.95
2018-11-11T21:49:57.267Z,18.10
2018-11-11T21:52:25.490Z,16.75
2018-11-11T21:54:53.770Z,22.35
2018-11-11T21:57:22.005Z,16.70
2018-11-11T21:59:50.250Z,19.45
2018-11-11T22:02:18.574Z,18.27
2018-11-11T22:04:46.799Z,19.50
2018-11-11T22:07:15.126Z,19.17
2018-11-11T22:09:43.377Z,19.98
2018-11-11T22:12:11.649Z,17.85
2018-11-11T22:14:39.849Z,19.57
2018-11-11T22:17:08.164Z,19.23
2018-11-11T22:19:36.419Z,19.12
2018-11-11T22:22:04.848Z,18.32
2018-11-11T22:24:33.214Z,20.50
2018-11-11T22:27:01.575Z,20.70
2018-11-11T22:29:29.882Z,19.87
2018-11-11T22:31:58.217Z,19.65
2018-11-11T22:34:26.422Z,18.05
2018-11-11T22:36:54.702Z,19.87
2018-11-11T22:39:22.910Z,20.05
2018-11-11T22:41:51.205Z,19.75
2018-11-11T22:44:19.495Z,21.40
2018-11-11T22:46:48.654Z,22.25
2018-11-11T22:49:16.879Z,23.75
2018-11-11T22:51:45.086Z,20.92
2018-11-11T22:54:13.336Z,20.62
2018-11-11T22:56:41.576Z,19.62
2018-11-11T22:59:09.790Z,18.27
2018-11-11T23:01:38.061Z,20.37
2018-11-11T23:04:06.282Z,22.55
2018-11-11T23:06:34.561Z,24.23
2018-11-11T23:09:03.423Z,19.60
2018-11-11T23:11:31.678Z,19.82
2018-11-11T23:13:59.922Z,19.70
2018-11-11T23:16:28.118Z,18.23
2018-11-11T23:18:56.370Z,18.32
2018-11-11T23:21:24.614Z,18.60
2018-11-11T23:23:52.808Z,18.77
2018-11-11T23:26:21.081Z,16.20
2018-11-11T23:28:49.294Z,16.90
2018-11-11T23:31:17.518Z,17.20
2018-11-11T23:33:45.775Z,20.25
2018-11-11T23:36:14.394Z,20.50
2018-11-11T23:38:42.685Z,18.70
2018-11-11T23:41:10.929Z,18.05
2018-11-11T23:43:39.174Z,18.00
2018-11-11T23:46:07.470Z,19.35
2018-11-11T23:48:35.660Z,16.48
2018-11-11T23:51:03.943Z,20.27
2018-11-11T23:53:32.153Z,17.70
2018-11-11T23:56:00.423Z,19.82
2018-11-11T23:58:28.648Z,20.20
